Time;durP1;ratioP1;P1;durP2;ratioP2;P2;SDS_P1;SDS_P2;PMS_P1;PMS_P2;Temp;Humidity;BMP_temperature;BMP_pressure;BME280_temperature;BME280_humidity;BME280_pressure;Samples;Min_cycle;Max_cycle;Signal;HPM_P1;HPM_P2
2022/11/06 05:22:59;;;;;;;2.63;2.28;;;;;;;1.27;100.00;100531.34;5109550;27;20335;-73
2022/11/06 05:25:30;;;;;;;2.90;2.13;;;;;;;1.15;100.00;100540.06;5109395;28;20040;-74
2022/11/06 05:27:56;;;;;;;4.25;2.75;;;;;;;1.19;100.00;100543.31;5109553;28;20488;-74
2022/11/06 05:30:22;;;;;;;5.25;2.80;;;;;;;1.17;100.00;100551.28;5109170;28;20044;-73
2022/11/06 05:32:51;;;;;;;6.32;2.60;;;;;;;1.23;100.00;100547.38;5109567;28;20041;-74
2022/11/06 05:35:18;;;;;;;6.30;2.58;;;;;;;1.18;100.00;100541.66;5109433;28;20093;-74
2022/11/06 05:37:43;;;;;;;5.20;2.33;;;;;;;1.23;100.00;100542.13;5108221;28;20111;-74
2022/11/06 05:40:09;;;;;;;3.20;2.17;;;;;;;1.24;100.00;100539.44;5109178;28;20550;-73
2022/11/06 05:42:42;;;;;;;4.65;2.67;;;;;;;1.27;100.00;100552.31;5109186;28;20076;-74
2022/11/06 05:45:08;;;;;;;4.72;2.50;;;;;;;1.36;100.00;100532.47;5109255;28;20082;-73
2022/11/06 05:47:34;;;;;;;4.47;2.78;;;;;;;1.42;100.00;100518.06;5109201;28;20032;-74
2022/11/06 05:50:00;;;;;;;4.38;2.03;;;;;;;1.47;100.00;100511.56;5108966;28;20073;-74
2022/11/06 05:52:25;;;;;;;5.75;2.55;;;;;;;1.53;100.00;100503.25;5108898;28;20040;-74
2022/11/06 05:54:51;;;;;;;3.38;2.28;;;;;;;1.54;100.00;100507.53;5109034;28;20465;-74
2022/11/06 05:57:16;;;;;;;4.60;2.47;;;;;;;1.58;100.00;100497.69;5108995;28;20068;-74
2022/11/06 05:59:42;;;;;;;8.43;3.00;;;;;;;1.62;100.00;100493.88;5109122;28;20062;-73
2022/11/06 06:02:09;;;;;;;3.58;2.38;;;;;;;1.67;100.00;100490.91;5108761;28;20028;-74
2022/11/06 06:04:34;;;;;;;4.47;2.95;;;;;;;1.69;100.00;100484.59;5108841;28;20086;-74
2022/11/06 06:07:00;;;;;;;2.75;2.25;;;;;;;1.70;100.00;100486.28;5107453;28;20498;-74
2022/11/06 06:09:25;;;;;;;3.70;2.25;;;;;;;1.71;100.00;100481.88;5108815;28;20038;-74
2022/11/06 06:11:51;;;;;;;5.35;2.95;;;;;;;1.68;100.00;100477.66;5108233;28;20044;-74
2022/11/06 06:14:18;;;;;;;3.47;2.35;;;;;;;1.75;100.00;100473.66;5108626;28;20097;-74
2022/11/06 06:16:43;;;;;;;1.70;1.60;;;;;;;1.76;100.00;100471.84;5108345;28;20040;-73
2022/11/06 06:19:09;;;;;;;5.40;2.97;;;;;;;1.76;100.00;100463.97;5108499;28;20398;-73
2022/11/06 06:21:35;;;;;;;3.22;2.30;;;;;;;1.77;100.00;100463.88;5108170;28;20417;-73
2022/11/06 06:24:01;;;;;;;5.07;2.40;;;;;;;1.76;100.00;100458.72;5108494;28;20031;-73
2022/11/06 06:26:26;;;;;;;2.38;2.17;;;;;;;1.69;100.00;100457.50;5108387;28;20044;-73
2022/11/06 06:28:52;;;;;;;3.17;2.22;;;;;;;1.75;100.00;100459.69;5108384;28;20071;-73
2022/11/06 06:31:17;;;;;;;2.75;1.95;;;;;;;1.73;100.00;100459.78;5107998;28;20043;-73
2022/11/06 06:33:43;;;;;;;3.72;2.60;;;;;;;1.67;100.00;100449.72;5096010;28;20040;-57
2022/11/06 06:36:08;;;;;;;3.25;2.10;;;;;;;1.64;100.00;100436.84;5094617;28;20090;-61
2022/11/06 06:38:34;;;;;;;5.72;2.20;;;;;;;1.59;100.00;100420.56;5094662;28;20028;-62
2022/11/06 06:41:04;;;;;;;4.30;2.45;;;;;;;1.65;100.00;100427.16;5094278;28;20028;-70
2022/11/06 06:43:30;;;;;;;3.40;2.00;;;;;;;1.68;100.00;100421.69;5094608;28;20048;-70
2022/11/06 06:46:04;;;;;;;3.80;2.65;;;;;;;1.70;100.00;100412.75;5094393;28;20024;-71
2022/11/06 06:48:30;;;;;;;3.75;1.85;;;;;;;1.66;100.00;100406.03;5094598;28;20385;-70
2022/11/06 06:50:57;;;;;;;2.65;2.30;;;;;;;1.69;100.00;100397.09;5093998;28;20150;-71
2022/11/06 06:53:23;;;;;;;2.63;1.85;;;;;;;1.69;100.00;100387.41;5094447;28;20040;-71
2022/11/06 06:55:48;;;;;;;2.20;2.00;;;;;;;1.70;100.00;100380.41;5094295;28;20039;-69
2022/11/06 06:58:14;;;;;;;5.28;2.25;;;;;;;1.69;100.00;100376.06;5094273;28;20036;-70
2022/11/06 07:00:39;;;;;;;4.40;2.22;;;;;;;1.71;100.00;100369.78;5094023;28;20484;-70
2022/11/06 07:03:05;;;;;;;4.18;2.47;;;;;;;1.71;100.00;100366.31;5094246;28;20040;-69
2022/11/06 07:05:30;;;;;;;4.13;2.60;;;;;;;1.70;100.00;100360.22;5094138;28;20107;-70
2022/11/06 07:07:56;;;;;;;5.50;2.97;;;;;;;1.76;100.00;100340.53;5094140;28;20511;-71
2022/11/06 07:10:21;;;;;;;3.83;2.40;;;;;;;1.88;100.00;100343.06;5092528;28;20342;-71
2022/11/06 07:12:47;;;;;;;3.67;2.63;;;;;;;1.98;100.00;100337.16;5093876;28;20044;-69
2022/11/06 07:15:13;;;;;;;3.90;1.95;;;;;;;2.07;100.00;100331.19;5093816;28;20122;-70
2022/11/06 07:17:38;;;;;;;2.88;1.85;;;;;;;2.12;100.00;100319.38;5093949;28;20039;-70
2022/11/06 07:20:05;;;;;;;3.13;2.38;;;;;;;2.21;100.00;100316.97;5093718;28;20115;-70
2022/11/06 07:22:30;;;;;;;3.08;1.83;;;;;;;2.27;100.00;100313.88;5093542;28;20490;-70
2022/11/06 07:24:56;;;;;;;3.08;2.00;;;;;;;2.35;100.00;100314.16;5093763;28;20056;-70
2022/11/06 07:27:21;;;;;;;4.50;1.55;;;;;;;2.40;100.00;100307.56;5093698;28;20043;-70
2022/11/06 07:29:46;;;;;;;1.73;1.35;;;;;;;2.49;100.00;100313.06;5092485;28;20481;-70
2022/11/06 07:32:12;;;;;;;2.53;1.77;;;;;;;2.54;100.00;100303.00;5093309;28;20040;-70
2022/11/06 07:34:37;;;;;;;2.47;1.83;;;;;;;2.63;100.00;100312.81;5093611;28;20558;-70
2022/11/06 07:37:06;;;;;;;2.92;1.42;;;;;;;2.72;100.00;100312.91;5092242;28;20043;-70
2022/11/06 07:39:32;;;;;;;3.40;1.75;;;;;;;2.90;100.00;100315.06;5093543;28;20043;-70
2022/11/06 07:41:57;;;;;;;2.15;1.33;;;;;;;3.04;100.00;100314.78;5093121;28;20024;-69
2022/11/06 07:44:31;;;;;;;2.70;1.35;;;;;;;3.13;100.00;100306.16;5091186;28;20039;-70
2022/11/06 07:46:56;;;;;;;2.78;1.50;;;;;;;3.31;100.00;100314.34;5093257;28;20492;-70
2022/11/06 07:49:22;;;;;;;3.28;1.45;;;;;;;3.43;100.00;100317.78;5092026;28;20053;-70
2022/11/06 07:51:47;;;;;;;1.60;1.13;;;;;;;3.60;100.00;100319.03;5092958;28;20032;-70
2022/11/06 07:54:13;;;;;;;1.85;1.00;;;;;;;3.68;100.00;100322.69;5093289;28;20112;-71
2022/11/06 07:56:38;;;;;;;2.33;1.67;;;;;;;3.71;100.00;100332.97;5091859;28;20032;-70
2022/11/06 07:59:04;;;;;;;1.65;1.23;;;;;;;3.79;100.00;100346.38;5091992;28;20776;-69
2022/11/06 08:01:30;;;;;;;2.45;1.60;;;;;;;3.85;100.00;100345.03;5092726;28;20553;-69
2022/11/06 08:03:55;;;;;;;2.03;1.73;;;;;;;3.90;100.00;100353.34;5092988;28;20508;-70
2022/11/06 08:06:21;;;;;;;1.83;1.40;;;;;;;3.98;100.00;100355.38;5092909;28;20392;-72
2022/11/06 08:08:46;;;;;;;5.30;1.83;;;;;;;4.06;100.00;100359.03;5092990;28;20044;-70
2022/11/06 08:11:12;;;;;;;3.22;1.60;;;;;;;4.15;100.00;100364.50;5092467;28;20484;-69
2022/11/06 08:13:38;;;;;;;1.38;1.20;;;;;;;4.22;100.00;100365.66;5092878;28;20123;-70
2022/11/06 08:16:11;;;;;;;1.90;1.50;;;;;;;4.31;100.00;100367.53;5092812;28;20481;-70
2022/11/06 08:18:37;;;;;;;1.83;1.30;;;;;;;4.40;100.00;100377.28;5091529;28;20036;-72
2022/11/06 08:21:04;;;;;;;1.92;1.40;;;;;;;4.48;100.00;100382.72;5092213;28;20385;-71
2022/11/06 08:23:29;;;;;;;2.17;1.45;;;;;;;4.59;100.00;100402.94;5092706;28;20481;-69
2022/11/06 08:25:56;;;;;;;2.97;1.45;;;;;;;4.71;100.00;100430.91;5092455;28;20070;-72
2022/11/06 08:28:23;;;;;;;3.20;1.52;;;;;;;4.86;100.00;100447.25;5092576;28;20089;-70
2022/11/06 08:30:48;;;;;;;5.90;1.92;;;;;;;4.94;100.00;100441.28;5092208;28;20462;-70
2022/11/06 08:33:13;;;;;;;3.10;1.80;;;;;;;4.98;100.00;100429.50;5092225;28;20075;-69
2022/11/06 08:35:39;;;;;;;3.33;2.15;;;;;;;5.02;100.00;100428.25;5092387;28;20055;-70
2022/11/06 08:38:04;;;;;;;2.78;1.85;;;;;;;5.07;100.00;100416.34;5092410;28;20131;-70
2022/11/06 08:40:30;;;;;;;2.83;1.80;;;;;;;5.16;100.00;100407.63;5092247;28;20130;-70
2022/11/06 08:43:01;;;;;;;2.45;1.85;;;;;;;5.23;100.00;100399.16;5092385;28;20440;-70
2022/11/06 08:45:27;;;;;;;2.65;1.70;;;;;;;5.37;100.00;100409.34;5092404;28;20127;-69
2022/11/06 08:47:52;;;;;;;3.08;2.10;;;;;;;5.44;100.00;100399.91;5092166;28;20107;-70
2022/11/06 08:50:18;;;;;;;3.80;2.28;;;;;;;5.54;100.00;100395.47;5091781;28;20040;-70
2022/11/06 08:52:43;;;;;;;3.17;2.08;;;;;;;5.60;100.00;100391.41;5092235;28;20032;-70
2022/11/06 08:55:08;;;;;;;3.38;2.25;;;;;;;5.68;100.00;100392.44;5091936;28;20465;-71
2022/11/06 08:57:34;;;;;;;3.22;2.35;;;;;;;5.79;100.00;100378.22;5092049;28;20036;-70
2022/11/06 08:59:59;;;;;;;3.22;2.42;;;;;;;5.85;100.00;100353.03;5091925;28;20040;-69
2022/11/06 09:02:25;;;;;;;6.20;2.33;;;;;;;6.00;100.00;100338.47;5091785;28;20063;-70
2022/11/06 09:04:50;;;;;;;2.55;1.73;;;;;;;6.22;100.00;100348.72;5090880;28;20184;-70
2022/11/06 09:07:16;;;;;;;3.53;2.05;;;;;;;6.44;100.00;100331.66;5092976;28;20099;-71
2022/11/06 09:09:41;;;;;;;2.38;1.77;;;;;;;6.64;100.00;100326.28;5092016;28;20040;-72
2022/11/06 09:12:07;;;;;;;2.80;1.70;;;;;;;6.83;100.00;100335.97;5091802;28;20036;-70
2022/11/06 09:14:33;;;;;;;2.75;1.77;;;;;;;7.14;99.09;100331.19;5092220;28;20035;-71
2022/11/06 09:16:58;;;;;;;4.00;2.30;;;;;;;7.17;99.44;100321.16;5091839;28;20165;-71
2022/11/06 09:19:24;;;;;;;2.40;1.80;;;;;;;7.29;98.70;100305.84;5090681;28;20040;-72
2022/11/06 09:21:49;;;;;;;3.83;2.13;;;;;;;7.47;98.04;100305.84;5091475;28;20040;-72
2022/11/06 09:24:14;;;;;;;3.35;1.95;;;;;;;7.67;97.54;100296.75;5091962;28;20443;-71
2022/11/06 09:26:40;;;;;;;2.00;1.40;;;;;;;7.48;97.56;100299.56;5091780;28;20036;-71
2022/11/06 09:29:05;;;;;;;5.10;2.17;;;;;;;7.78;97.43;100279.78;5091946;28;20050;-70
2022/11/06 09:31:31;;;;;;;2.80;1.80;;;;;;;8.01;96.41;100282.75;5091428;28;20043;-70
2022/11/06 09:33:57;;;;;;;3.00;2.05;;;;;;;8.13;93.76;100276.19;5091990;28;20063;-71
2022/11/06 09:36:22;;;;;;;4.05;1.70;;;;;;;8.23;92.43;100266.31;5092109;28;20077;-71
2022/11/06 09:38:49;;;;;;;2.08;1.73;;;;;;;8.38;91.03;100258.63;5091894;28;20039;-71
2022/11/06 09:41:29;;;;;;;1.83;1.52;;;;;;;8.43;89.90;100251.84;5091471;28;20081;-71
2022/11/06 09:44:27;;;;;;;2.05;1.27;;;;;;;8.75;89.06;100257.44;5092003;28;20097;-71
2022/11/06 09:46:52;;;;;;;;;;;;;;;8.89;87.00;100252.34;5092384;28;20028;-71
2022/11/06 09:49:38;;;;;;;2.83;1.70;;;;;;;8.91;86.70;100258.31;5091710;28;20559;-71
2022/11/06 09:52:11;;;;;;;1.98;1.67;;;;;;;9.02;86.69;100257.19;5091549;28;20028;-70
2022/11/06 09:54:43;;;;;;;2.33;1.35;;;;;;;9.31;83.88;100253.22;5091740;28;20028;-71
2022/11/06 09:57:18;;;;;;;1.85;1.27;;;;;;;9.43;84.35;100246.59;5091854;28;20476;-72
2022/11/06 09:59:45;;;;;;;2.53;1.55;;;;;;;9.90;82.44;100244.06;5092002;28;20036;-71
2022/11/06 10:02:27;;;;;;;2.63;1.63;;;;;;;10.62;79.27;100235.22;5091470;28;20028;-71
2022/11/06 10:05:32;;;;;;;5.10;1.95;;;;;;;10.77;75.72;100238.84;5091807;28;20070;-72
2022/11/06 10:08:00;;;;;;;3.35;1.65;;;;;;;10.87;75.32;100226.09;5070517;28;20055;-71
2022/11/06 10:10:45;;;;;;;;;;;;;;;10.78;74.04;100221.84;5072705;28;20036;-69
2022/11/06 10:13:33;;;;;;;3.13;1.75;;;;;;;11.35;73.98;100213.47;5086421;28;20374;-71
2022/11/06 10:16:10;;;;;;;;;;;;;;;11.36;74.09;100209.78;5095565;28;20096;-69
2022/11/06 10:18:54;;;;;;;2.75;1.70;;;;;;;10.88;72.83;100199.28;5095163;28;20415;-70
2022/11/06 10:21:28;;;;;;;3.70;1.55;;;;;;;11.08;73.12;100202.34;5093472;28;20538;-70
2022/11/06 10:23:58;;;;;;;1.73;1.50;;;;;;;11.11;72.44;100175.31;5095004;28;20036;-71
2022/11/06 10:26:32;;;;;;;2.25;1.63;;;;;;;11.19;72.58;100168.25;5093524;28;20028;-72
2022/11/06 10:29:00;;;;;;;1.95;1.40;;;;;;;11.21;72.93;100152.88;5094725;28;20032;-71
2022/11/06 10:31:32;;;;;;;2.10;1.40;;;;;;;10.71;75.05;100163.09;5094355;28;20039;-69
2022/11/06 10:34:11;;;;;;;1.85;1.65;;;;;;;11.03;72.84;100156.72;5094760;28;20503;-71
2022/11/06 10:37:15;;;;;;;4.78;2.10;;;;;;;11.20;72.96;100151.25;5094616;28;20408;-72
2022/11/06 10:39:41;;;;;;;2.60;1.90;;;;;;;11.21;72.78;100150.22;5094637;28;20040;-71
2022/11/06 10:42:18;;;;;;;1.65;1.40;;;;;;;12.13;69.81;100151.66;5094336;28;20036;-72
2022/11/06 10:44:50;;;;;;;4.57;1.88;;;;;;;12.59;67.24;100135.38;5094645;28;20397;-69
2022/11/06 10:47:21;;;;;;;1.70;1.30;;;;;;;13.18;66.03;100124.41;5094619;28;20036;-71
2022/11/06 10:49:50;;;;;;;3.60;1.63;;;;;;;13.43;63.71;100124.84;5093274;28;20047;-68
2022/11/06 10:52:40;;;;;;;2.13;1.42;;;;;;;13.88;61.16;100124.50;5094069;28;20067;-68
2022/11/06 10:55:24;;;;;;;2.95;1.80;;;;;;;14.39;58.04;100112.38;5094331;28;20059;-71
2022/11/06 10:57:54;;;;;;;2.53;1.50;;;;;;;14.97;57.71;100095.00;5094434;28;20099;-71
2022/11/06 11:00:19;;;;;;;3.17;1.90;;;;;;;15.20;55.65;100098.94;5094104;28;20040;-71
2022/11/06 11:02:48;;;;;;;2.15;1.75;;;;;;;15.33;55.85;100095.41;5094252;28;20032;-72
2022/11/06 11:05:17;;;;;;;2.20;1.77;;;;;;;15.73;54.67;100088.16;5094187;28;20039;-70
2022/11/06 11:07:45;;;;;;;2.00;1.50;;;;;;;16.24;52.15;100094.59;5092746;28;20038;-70
2022/11/06 11:10:22;;;;;;;1.75;1.40;;;;;;;16.45;52.55;100096.97;5093930;28;20024;-72
2022/11/06 11:12:52;;;;;;;;;;;;;;;16.44;52.15;100089.94;5094691;28;20680;-69
2022/11/06 11:15:22;;;;;;;1.92;1.60;;;;;;;16.97;49.63;100081.56;5093940;28;19931;-71
2022/11/06 11:18:06;;;;;;;2.08;1.58;;;;;;;16.77;49.86;100084.38;5093961;28;20036;-72
2022/11/06 11:20:34;;;;;;;2.67;2.00;;;;;;;17.10;48.85;100080.63;5093543;28;20043;-70
2022/11/06 11:23:06;;;;;;;;;;;;;;;16.11;49.63;100071.28;5093024;28;20020;-70
2022/11/06 11:25:32;;;;;;;2.85;1.63;;;;;;;16.66;49.96;100071.59;5093780;28;19989;-71
2022/11/06 11:27:58;;;;;;;2.75;1.85;;;;;;;17.11;48.96;100054.53;5093819;28;20032;-72
2022/11/06 11:30:25;;;;;;;2.67;1.70;;;;;;;16.85;49.10;100042.94;5093269;28;20047;-69
2022/11/06 11:35:24;;;;;;;3.15;2.22;;;;;;;17.06;49.34;100039.84;4993777;28;20049;-65
2022/11/06 11:37:50;;;;;;;3.13;2.80;;;;;;;16.95;50.87;100028.97;5013319;28;20038;-66
2022/11/06 11:40:34;;;;;;;3.25;2.10;;;;;;;16.57;50.48;100012.94;5012167;28;20026;-65
2022/11/06 11:43:18;;;;;;;5.22;3.33;;;;;;;16.68;50.32;100015.72;5013373;28;20042;-66
2022/11/06 11:45:43;;;;;;;2.30;1.75;;;;;;;16.32;51.47;99996.75;5013472;28;20062;-66
2022/11/06 11:48:12;;;;;;;4.05;1.85;;;;;;;16.47;50.50;99990.03;5012258;28;20463;-66
2022/11/06 11:50:38;;;;;;;5.97;3.22;;;;;;;16.55;51.37;99986.25;5012881;28;20068;-66
2022/11/06 11:53:13;;;;;;;5.03;3.20;;;;;;;16.39;51.40;99989.47;5013125;28;20443;-66
2022/11/06 11:55:45;;;;;;;3.22;2.40;;;;;;;15.71;52.81;100001.63;5013096;28;20076;-65
2022/11/06 11:58:26;;;;;;;5.45;2.15;;;;;;;15.51;53.87;99990.06;5012933;28;20037;-65
2022/11/06 12:00:56;;;;;;;4.35;2.75;;;;;;;15.02;56.14;99991.44;5004188;28;20042;-65
2022/11/06 12:03:27;;;;;;;4.60;2.80;;;;;;;14.47;58.46;99987.28;4999638;28;20093;-65
2022/11/06 12:06:04;;;;;;;3.95;2.03;;;;;;;14.44;59.28;99980.47;5002459;28;20117;-65
2022/11/06 12:08:30;;;;;;;3.60;2.22;;;;;;;14.21;61.31;99983.50;5002385;28;20490;-65
2022/11/06 12:11:02;;;;;;;3.53;2.30;;;;;;;13.80;64.37;99978.25;5002012;28;20058;-65
2022/11/06 12:13:28;;;;;;;3.50;2.55;;;;;;;13.64;66.84;99974.09;5001488;28;20026;-65
2022/11/06 12:15:59;;;;;;;3.35;2.33;;;;;;;13.40;68.18;99969.25;5004283;28;20061;-65
2022/11/06 12:18:38;;;;;;;4.00;2.00;;;;;;;13.32;69.24;99951.50;5005003;28;20041;-65
2022/11/06 12:21:14;;;;;;;4.72;2.50;;;;;;;13.14;68.50;99957.34;5012152;28;20045;-64
2022/11/06 12:24:11;;;;;;;4.18;2.30;;;;;;;12.87;74.62;99950.16;5012438;28;20041;-64
2022/11/06 12:26:42;;;;;;;4.57;2.27;;;;;;;12.88;69.74;99946.47;5012133;28;20434;-65
2022/11/06 12:29:15;;;;;;;3.67;2.03;;;;;;;12.82;73.01;99956.09;5012382;28;20277;-65
2022/11/06 12:32:06;;;;;;;5.20;2.47;;;;;;;12.84;73.95;99953.22;5011573;28;20494;-64
2022/11/06 12:34:53;;;;;;;2.67;2.20;;;;;;;12.82;73.81;99955.28;5012149;28;20088;-64
2022/11/06 12:37:40;;;;;;;3.95;2.58;;;;;;;12.41;76.18;99955.97;5012199;28;20033;-64
2022/11/06 12:40:49;;;;;;;2.80;1.90;;;;;;;12.27;77.25;99957.69;5012129;28;20052;-65
2022/11/06 12:43:34;;;;;;;4.05;2.40;;;;;;;11.98;75.71;99947.13;5010813;28;20365;-65
2022/11/06 12:46:09;;;;;;;5.32;2.78;;;;;;;11.94;76.34;99936.84;5011952;28;20041;-64
2022/11/06 12:49:11;;;;;;;6.05;3.10;;;;;;;11.88;77.84;99936.78;5011968;28;20038;-64
2022/11/06 12:51:49;;;;;;;5.35;2.50;;;;;;;11.73;78.86;99935.94;5011571;28;20114;-63
2022/11/06 12:54:36;;;;;;;5.88;3.45;;;;;;;11.80;80.65;99929.69;5011870;28;20496;-64
2022/11/06 12:57:26;;;;;;;8.13;3.20;;;;;;;11.85;78.86;99926.47;5011972;28;20708;-65
2022/11/06 13:00:08;;;;;;;4.57;3.15;;;;;;;11.64;78.12;99913.88;5010523;28;20084;-64
2022/11/06 13:03:01;;;;;;;9.00;3.53;;;;;;;11.55;80.29;99913.19;4994030;28;20034;-65
2022/11/06 13:05:58;;;;;;;10.15;3.70;;;;;;;11.62;80.01;99910.59;5011673;28;20030;-64
2022/11/06 13:08:53;;;;;;;5.82;2.97;;;;;;;11.65;79.79;99900.34;5011959;28;20120;-65
2022/11/06 13:11:44;;;;;;;6.93;3.17;;;;;;;11.72;79.58;99896.94;5011543;28;20041;-66
2022/11/06 13:14:16;;;;;;;8.15;3.25;;;;;;;11.63;80.45;99894.41;5011725;28;20041;-66
2022/11/06 13:17:03;;;;;;;6.45;3.25;;;;;;;11.50;81.81;99899.56;5011852;28;20045;-66
2022/11/06 13:19:33;;;;;;;4.28;2.92;;;;;;;11.58;79.06;99898.63;5011724;28;20045;-65
2022/11/06 13:22:17;;;;;;;4.72;2.97;;;;;;;11.49;83.43;99911.25;5010282;28;20034;-65
2022/11/06 13:25:01;;;;;;;6.10;3.05;;;;;;;11.39;82.64;99903.53;4998666;28;20447;-65
2022/11/06 13:27:37;;;;;;;5.82;3.47;;;;;;;11.37;81.38;99900.25;4992095;28;20030;-65
2022/11/06 13:30:12;;;;;;;6.03;3.20;;;;;;;11.40;82.81;99896.38;5006480;28;20044;-65
2022/11/06 13:32:40;;;;;;;3.50;2.72;;;;;;;11.38;81.98;99899.22;4991934;28;20043;-66
2022/11/06 13:35:14;;;;;;;4.75;2.95;;;;;;;11.33;80.46;99890.94;4991917;28;20031;-66
2022/11/06 13:37:44;;;;;;;5.38;3.10;;;;;;;11.34;81.42;99878.44;4992095;28;20491;-68
2022/11/06 13:40:36;;;;;;;4.25;2.53;;;;;;;11.30;85.92;99870.00;4991745;28;20045;-66
2022/11/06 13:43:30;;;;;;;5.55;3.30;;;;;;;11.19;83.48;99862.47;4993633;28;20030;-66
2022/11/06 13:46:16;;;;;;;7.63;2.97;;;;;;;11.08;81.17;99854.94;4993633;28;20042;-66
2022/11/06 13:49:07;;;;;;;4.77;3.17;;;;;;;11.02;81.02;99853.88;4995915;28;20034;-66
2022/11/06 13:51:45;;;;;;;3.53;2.80;;;;;;;10.93;83.82;99844.31;4995505;28;20479;-66
2022/11/06 13:54:25;;;;;;;6.10;2.85;;;;;;;10.94;84.06;99845.97;4995841;28;20038;-64
2022/11/06 13:57:11;;;;;;;6.32;3.47;;;;;;;10.93;85.45;99854.16;4995888;28;20034;-63
2022/11/06 14:00:03;;;;;;;4.80;3.28;;;;;;;10.87;86.01;99853.03;4994605;28;20038;-64
2022/11/06 14:03:03;;;;;;;6.57;3.33;;;;;;;10.80;86.30;99860.13;4991843;28;20042;-65
2022/11/06 14:05:38;;;;;;;4.47;2.60;;;;;;;10.82;87.56;99858.09;4995490;28;20042;-65
2022/11/06 14:08:06;;;;;;;4.45;2.78;;;;;;;10.85;87.34;99857.75;4995319;28;20510;-64
2022/11/06 14:10:34;;;;;;;;;;;;;;;10.85;88.25;99853.25;5010505;28;20030;-65
2022/11/06 14:13:01;;;;;;;3.85;3.00;;;;;;;10.81;88.39;99857.28;4995283;28;19913;-65
2022/11/06 14:15:38;;;;;;;6.53;4.00;;;;;;;10.79;87.52;99848.66;4995401;28;20042;-65
2022/11/06 14:18:04;;;;;;;6.88;4.00;;;;;;;10.78;89.42;99849.66;5010340;28;20049;-63
2022/11/06 14:20:35;;;;;;;3.50;2.60;;;;;;;10.79;89.23;99861.97;4977390;28;20038;-65
2022/11/06 14:23:29;;;;;;;5.00;3.35;;;;;;;10.73;89.94;99851.22;4995221;28;20074;-64
2022/11/06 14:26:09;;;;;;;4.50;2.53;;;;;;;10.77;88.45;99850.69;5012517;28;20598;-64
2022/11/06 14:28:42;;;;;;;4.35;2.35;;;;;;;10.80;88.33;99852.13;5015032;28;20515;-64
2022/11/06 14:31:49;;;;;;;7.22;3.33;;;;;;;10.80;89.72;99849.47;5014293;28;20391;-64
2022/11/06 14:34:33;;;;;;;6.78;3.72;;;;;;;10.78;89.36;99846.16;5014360;28;20100;-64
2022/11/06 14:37:18;;;;;;;6.90;3.03;;;;;;;10.76;90.02;99842.88;5014662;28;20582;-64
2022/11/06 14:39:50;;;;;;;5.75;2.83;;;;;;;10.69;89.20;99847.25;5014479;28;20046;-65
2022/11/06 14:42:38;;;;;;;5.95;3.72;;;;;;;10.56;90.83;99846.09;5013028;28;20554;-64
2022/11/06 14:45:09;;;;;;;5.82;3.50;;;;;;;10.49;90.91;99844.31;5014375;28;20084;-65
2022/11/06 14:47:39;;;;;;;8.02;4.07;;;;;;;10.42;92.83;99836.22;5014233;28;20487;-64
2022/11/06 14:50:24;;;;;;;6.22;3.65;;;;;;;10.39;93.48;99822.47;5014209;28;20050;-64
2022/11/06 14:53:06;;;;;;;9.18;4.40;;;;;;;10.24;95.34;99828.59;5014097;28;20129;-63
2022/11/06 14:55:42;;;;;;;10.82;4.97;;;;;;;10.19;97.49;99827.44;5014311;28;20080;-64
2022/11/06 14:58:17;;;;;;;8.20;4.60;;;;;;;10.15;98.74;99839.44;5013011;28;20038;-64
2022/11/06 15:00:50;;;;;;;11.77;5.75;;;;;;;10.06;97.83;99842.19;5013818;28;20030;-64
2022/11/06 15:03:32;;;;;;;12.68;5.13;;;;;;;10.00;99.23;99840.25;5014058;28;20419;-61
2022/11/06 15:06:05;;;;;;;10.00;4.82;;;;;;;9.94;100.00;99845.47;5014032;28;20036;-63
2022/11/06 15:08:51;;;;;;;12.15;6.05;;;;;;;9.88;100.00;99841.69;5014077;28;20399;-64
2022/11/06 15:11:29;;;;;;;13.60;7.68;;;;;;;9.83;100.00;99848.53;5013589;28;20499;-65
2022/11/06 15:13:57;;;;;;;15.32;6.53;;;;;;;9.81;100.00;99850.56;5013814;28;20789;-64
2022/11/06 15:16:26;;;;;;;13.52;6.75;;;;;;;9.73;100.00;99848.78;5012564;28;20573;-65
2022/11/06 15:18:52;;;;;;;11.45;6.15;;;;;;;9.64;100.00;99863.94;5012507;28;20490;-64
2022/11/06 15:21:23;;;;;;;9.70;5.43;;;;;;;9.64;100.00;99860.47;5013448;28;20073;-64
2022/11/06 15:23:53;;;;;;;17.75;6.55;;;;;;;9.50;100.00;99854.91;5014186;28;20041;-65
2022/11/06 15:26:26;;;;;;;12.88;6.35;;;;;;;9.43;100.00;99863.75;5012948;28;20482;-64
2022/11/06 15:29:14;;;;;;;14.23;7.38;;;;;;;9.41;100.00;99869.25;5013606;28;20041;-63
2022/11/06 15:31:41;;;;;;;15.48;6.90;;;;;;;9.39;100.00;99865.94;5012632;28;20095;-64
2022/11/06 15:34:30;;;;;;;14.57;7.53;;;;;;;9.34;100.00;99860.31;5013399;28;20143;-55
2022/11/06 15:37:16;;;;;;;12.52;6.93;;;;;;;9.32;100.00;99850.84;5013548;28;20038;-64
2022/11/06 15:39:55;;;;;;;16.60;7.60;;;;;;;9.22;100.00;99835.13;5013570;28;20582;-56
2022/11/06 15:42:28;;;;;;;12.25;6.68;;;;;;;9.19;100.00;99830.16;5013268;28;20042;-57
2022/11/06 15:45:07;;;;;;;11.35;6.63;;;;;;;9.17;100.00;99811.72;5013231;28;20137;-65
2022/11/06 15:47:34;;;;;;;16.08;6.57;;;;;;;8.97;100.00;99823.78;5013336;28;20034;-65
2022/11/06 15:50:17;;;;;;;11.48;6.70;;;;;;;8.97;100.00;99815.81;5013055;28;20038;-65
2022/11/06 15:52:44;;;;;;;13.05;6.72;;;;;;;9.02;100.00;99808.16;5013238;28;20085;-64
2022/11/06 15:55:31;;;;;;;15.00;7.25;;;;;;;9.03;100.00;99814.31;5013054;28;20072;-65
2022/11/06 15:58:15;;;;;;;13.82;7.15;;;;;;;8.96;100.00;99814.19;5013034;28;20487;-64
2022/11/06 16:00:41;;;;;;;15.60;7.60;;;;;;;8.97;100.00;99810.50;5012835;28;20037;-65
2022/11/06 16:03:14;;;;;;;18.08;7.60;;;;;;;8.91;100.00;99819.16;5012956;28;20052;-65
2022/11/06 16:05:39;;;;;;;14.27;6.47;;;;;;;8.86;100.00;99827.66;5012158;28;20049;-66
2022/11/06 16:08:05;;;;;;;16.05;7.28;;;;;;;8.80;100.00;99817.75;5012851;28;20038;-64
2022/11/06 16:10:34;;;;;;;16.88;7.18;;;;;;;8.81;100.00;99823.88;5012486;28;20034;-64
2022/11/06 16:13:02;;;;;;;15.93;7.13;;;;;;;8.84;100.00;99815.56;5012718;28;20442;-65
2022/11/06 16:15:51;;;;;;;16.50;7.25;;;;;;;8.76;100.00;99821.72;5012880;28;20037;-66
2022/11/06 16:18:30;;;;;;;14.80;7.07;;;;;;;8.74;100.00;99822.88;5012735;28;20038;-65
2022/11/06 16:21:10;;;;;;;15.27;6.18;;;;;;;8.73;100.00;99831.84;5012267;28;20033;-65
2022/11/06 16:23:38;;;;;;;16.38;6.32;;;;;;;8.79;100.00;99825.84;5011295;28;20034;-62
2022/11/06 16:26:18;;;;;;;10.05;6.47;;;;;;;8.80;100.00;99803.59;5011446;28;20044;-64
2022/11/06 16:28:47;;;;;;;11.75;5.65;;;;;;;8.69;100.00;99812.78;5012564;28;20100;-64
2022/11/06 16:31:16;;;;;;;11.98;6.10;;;;;;;8.56;100.00;99817.81;5012099;28;20045;-64
2022/11/06 16:33:57;;;;;;;15.65;7.82;;;;;;;8.64;100.00;99836.38;5012174;28;20046;-73
2022/11/06 16:36:25;;;;;;;11.93;5.97;;;;;;;8.56;100.00;99833.75;5012537;28;20045;-74
2022/11/06 16:38:52;;;;;;;13.02;6.55;;;;;;;8.56;100.00;99842.53;5012674;28;20033;-74
2022/11/06 16:41:55;;;;;;;15.93;6.82;;;;;;;8.55;100.00;99838.22;5012072;28;20042;-72
2022/11/06 16:44:24;;;;;;;10.55;6.13;;;;;;;8.53;100.00;99840.19;5012172;28;20034;-72
2022/11/06 16:47:08;;;;;;;11.40;7.07;;;;;;;8.50;100.00;99837.91;5010989;28;20092;-72
2022/11/06 16:49:34;;;;;;;17.45;8.05;;;;;;;8.50;100.00;99845.88;5012283;28;20526;-72
2022/11/06 16:52:00;;;;;;;15.50;7.05;;;;;;;8.48;100.00;99847.03;5011649;28;20459;-73
2022/11/06 16:54:29;;;;;;;14.05;7.90;;;;;;;8.39;100.00;99855.00;5012112;28;20652;-72
2022/11/06 16:57:08;;;;;;;16.65;7.28;;;;;;;8.48;100.00;99862.97;5012100;28;20057;-72
2022/11/06 16:59:33;;;;;;;16.33;7.35;;;;;;;8.45;100.00;99863.28;5012107;28;20064;-72
2022/11/06 17:01:58;;;;;;;13.15;6.57;;;;;;;8.45;100.00;99860.63;5010515;28;20042;-73
2022/11/06 17:04:28;;;;;;;21.27;7.38;;;;;;;8.48;100.00;99862.97;5011793;28;20080;-72
2022/11/06 17:06:56;;;;;;;14.95;7.38;;;;;;;8.46;100.00;99883.53;5012316;28;20045;-76
2022/11/06 17:09:21;;;;;;;13.65;6.80;;;;;;;8.50;100.00;99879.56;5012275;28;20037;-75
2022/11/06 17:11:49;;;;;;;13.75;7.70;;;;;;;8.52;100.00;99882.84;5010995;28;20458;-76
2022/11/06 17:14:19;;;;;;;15.80;6.90;;;;;;;8.47;100.00;99883.34;5013329;28;20061;-73
2022/11/06 17:16:55;;;;;;;13.77;6.80;;;;;;;8.47;100.00;99883.34;5013273;28;20375;-74
2022/11/06 17:19:21;;;;;;;12.32;7.03;;;;;;;8.42;100.00;99875.91;5012194;28;20073;-74